Stations météo

réclame
Mon MeteoGroup
Bealach, Grande-Bretagne (3039): Température de l'air & dewpoint: 09.09.2019 07:00:00 - 15.09.2019 07:00:00 (BST)Bealach, Grande-Bretagne (3039): Vitesse du vent & gusts: 09.09.2019 07:00:00 - 15.09.2019 07:00:00 (BST)Bealach, Grande-Bretagne (3039): Direction du vent: 09.09.2019 07:00:00 - 15.09.2019 07:00:00 (BST)
Date & Time tt [°C] td [°C] ff [km/h] ff [knt] fx [km/h] fx [knt] dd
15.09.2019 07:00:00 4,3 4,3 57 31 72 39 W
15.09.2019 06:00:00 4,2 4,2 59 32 68 37 W
15.09.2019 05:00:00 4,3 4,3 48 26 65 35 W
15.09.2019 04:00:00 4,2 4,2 42 23 76 41 W
15.09.2019 03:00:00 4,6 4,6 52 28 72 39 W
15.09.2019 02:00:00 4,9 4,9 59 32 85 46 W
15.09.2019 01:00:00 5,1 5,1 63 34 81 44 W
15.09.2019 00:00:00 5,0 5,0 59 32 83 45 W
14.09.2019 23:00:00 5,9 5,9 61 33 76 41 WSW
14.09.2019 22:00:00 6,3 6,3 46 25 61 33 W
14.09.2019 21:00:00 6,6 6,6 42 23 72 39 W
14.09.2019 20:00:00 6,2 6,2 57 31 89 48 W
14.09.2019 19:00:00 6,6 6,5 67 36 94 51 W
14.09.2019 18:00:00 9,0 9,0 76 41 107 58 W
14.09.2019 17:00:00 10,1 10,1 83 45 106 57 WSW
14.09.2019 16:00:00 10,1 10,0 81 44 117 63 SSW
14.09.2019 15:00:00 9,7 9,7 89 48 111 60 SSW
14.09.2019 14:00:00 9,3 9,2 94 51 119 64 SSW
14.09.2019 13:00:00 9,0 9,0 100 54 131 71 SSW
14.09.2019 12:00:00 8,6 8,6 102 55 120 65 SSW
14.09.2019 11:00:00 7,9 7,9 89 48 119 64 SSW
14.09.2019 10:00:00 7,6 7,6 85 46 111 60 SSW
14.09.2019 09:00:00 7,2 7,1 83 45 111 60 S
14.09.2019 08:00:00 6,3 6,3 83 45 115 62 S
14.09.2019 07:00:00 6,0 6,0 87 47 122 66 S
14.09.2019 06:00:00 6,4 6,4 76 41 107 58 S
14.09.2019 05:00:00 6,8 6,8 72 39 96 52 S
14.09.2019 04:00:00 6,8 6,8 67 36 91 49 SSW
14.09.2019 03:00:00 6,8 6,7 61 33 100 54 S
14.09.2019 02:00:00 6,7 6,7 61 33 76 41 SSW
14.09.2019 01:00:00 6,9 6,8 48 26 65 35 SSW
14.09.2019 00:00:00 6,8 6,8 46 25 57 31 SSW
13.09.2019 23:00:00 7,0 7,0 41 22 50 27 SW
13.09.2019 22:00:00 6,6 6,6 37 20 46 25 WSW
13.09.2019 21:00:00 6,6 6,6 29 16 55 30 WSW
13.09.2019 20:00:00 6,3 6,3 42 23 59 32 WSW
13.09.2019 19:00:00 6,4 6,4 44 24 59 32 WSW
13.09.2019 18:00:00 6,3 6,3 42 23 59 32 WSW
13.09.2019 17:00:00 6,6 6,0 48 26 61 33 WSW
13.09.2019 16:00:00 6,6 6,6 44 24 63 34 WSW
13.09.2019 15:00:00 7,3 7,0 50 27 65 35 WSW
13.09.2019 14:00:00 6,9 6,9 52 28 65 35 WSW
13.09.2019 13:00:00 6,9 6,8 54 29 68 37 WSW
13.09.2019 12:00:00 6,3 6,3 52 28 67 36 WSW
13.09.2019 11:00:00 6,1 6,1 48 26 63 34 WSW
13.09.2019 10:00:00 6,0 6,0 - - 55 30 -
13.09.2019 09:00:00 5,6 5,6 37 20 46 25 WSW
13.09.2019 08:00:00 5,4 5,4 41 22 55 30 W
13.09.2019 07:00:00 5,5 5,5 44 24 63 34 W
13.09.2019 06:00:00 5,1 5,1 39 21 54 29 W
13.09.2019 05:00:00 5,1 5,1 42 23 57 31 W
13.09.2019 04:00:00 5,1 5,0 50 27 61 33 W
13.09.2019 03:00:00 5,3 5,3 42 23 52 28 W
13.09.2019 02:00:00 5,3 5,3 41 22 54 29 W
13.09.2019 01:00:00 5,4 5,4 41 22 61 33 W
13.09.2019 00:00:00 5,2 5,2 42 23 57 31 W
12.09.2019 23:00:00 5,7 5,7 46 25 65 35 W
12.09.2019 22:00:00 5,8 5,8 46 25 63 34 WSW
12.09.2019 21:00:00 5,6 5,6 37 20 46 25 W
12.09.2019 20:00:00 5,7 5,7 34 18 50 27 W
12.09.2019 19:00:00 6,1 6,1 41 22 52 28 W
12.09.2019 18:00:00 6,3 6,3 42 23 54 29 W
12.09.2019 17:00:00 6,8 6,8 44 24 57 31 WNW
12.09.2019 16:00:00 7,0 6,9 42 23 59 32 W
12.09.2019 15:00:00 6,7 6,7 46 25 55 30 W
12.09.2019 14:00:00 7,0 6,9 42 23 54 29 W
12.09.2019 13:00:00 6,9 6,9 41 22 52 28 W
12.09.2019 12:00:00 6,8 6,8 42 23 59 32 W
12.09.2019 11:00:00 6,4 6,4 46 25 59 32 WSW
12.09.2019 10:00:00 6,3 6,3 44 24 57 31 WSW
12.09.2019 09:00:00 6,3 6,3 37 20 50 27 WSW
12.09.2019 08:00:00 6,1 6,1 35 19 52 28 WSW
12.09.2019 07:00:00 6,3 6,3 39 21 46 25 SW
12.09.2019 06:00:00 6,0 6,0 28 15 63 34 SW
12.09.2019 05:00:00 6,2 6,2 42 23 59 32 WSW
12.09.2019 04:00:00 6,4 6,3 44 24 68 37 WSW
12.09.2019 03:00:00 6,6 6,5 34 18 50 27 WSW
12.09.2019 02:00:00 6,7 6,6 41 22 55 30 WSW
12.09.2019 01:00:00 6,6 6,6 42 23 61 33 WSW
12.09.2019 00:00:00 6,7 6,7 52 28 72 39 WSW
11.09.2019 23:00:00 7,0 7,0 54 29 78 42 W
11.09.2019 22:00:00 7,3 7,3 44 24 63 34 WSW
11.09.2019 21:00:00 7,3 7,3 46 25 67 36 WSW
11.09.2019 20:00:00 7,4 7,4 52 28 74 40 W
11.09.2019 19:00:00 7,5 7,5 54 29 76 41 WSW
11.09.2019 18:00:00 7,5 7,5 61 33 81 44 WSW
11.09.2019 17:00:00 7,6 7,6 63 34 76 41 WSW
11.09.2019 16:00:00 7,6 7,6 65 35 78 42 WSW
11.09.2019 15:00:00 7,4 7,4 61 33 80 43 WSW
11.09.2019 14:00:00 7,5 7,4 61 33 87 47 W
11.09.2019 13:00:00 7,5 7,5 70 38 100 54 WSW
11.09.2019 12:00:00 7,4 7,3 63 34 89 48 WSW
11.09.2019 11:00:00 7,0 7,0 63 34 83 45 WSW
11.09.2019 10:00:00 7,1 7,1 65 35 80 43 WSW
11.09.2019 09:00:00 7,1 7,0 67 36 83 45 WSW
11.09.2019 08:00:00 6,9 6,9 61 33 85 46 W
11.09.2019 07:00:00 7,2 7,2 70 38 93 50 WSW
11.09.2019 06:00:00 7,4 7,4 78 42 100 54 WSW
11.09.2019 05:00:00 7,6 7,6 68 37 93 50 WSW
11.09.2019 04:00:00 7,9 7,9 67 36 81 44 WSW
11.09.2019 03:00:00 8,3 8,2 61 33 83 45 WSW
11.09.2019 02:00:00 9,2 9,2 72 39 94 51 WSW
11.09.2019 01:00:00 10,5 10,5 63 34 89 48 SW
11.09.2019 00:00:00 10,8 10,8 67 36 106 57 SSW
10.09.2019 23:00:00 10,3 10,3 93 50 117 63 SSW
10.09.2019 22:00:00 9,7 9,7 89 48 122 66 S
10.09.2019 21:00:00 9,0 9,0 81 44 113 61 S
10.09.2019 20:00:00 8,7 8,7 65 35 102 55 S
10.09.2019 19:00:00 8,0 8,0 70 38 94 51 S
10.09.2019 18:00:00 7,1 7,0 48 26 81 44 S
10.09.2019 17:00:00 6,0 6,0 42 23 81 44 SSE
10.09.2019 16:00:00 5,9 5,9 48 26 83 45 S
10.09.2019 15:00:00 6,1 6,1 48 26 85 46 S
10.09.2019 14:00:00 5,9 5,6 39 21 74 40 S
10.09.2019 13:00:00 5,5 5,4 39 21 72 39 S
10.09.2019 12:00:00 5,7 5,6 37 20 65 35 SSE
10.09.2019 11:00:00 5,5 5,5 28 15 52 28 SSE
10.09.2019 10:00:00 5,4 5,3 24 13 - - S
10.09.2019 09:00:00 5,2 5,2 24 13 - - S
10.09.2019 08:00:00 4,9 4,9 21 11 - - SSW
10.09.2019 07:00:00 5,0 5,0 13 7 - - SSW
10.09.2019 06:00:00 4,8 4,8 18 10 48 26 NW
10.09.2019 05:00:00 4,9 4,8 9 5 - - WSW
10.09.2019 04:00:00 4,9 4,9 11 6 - - NW
10.09.2019 03:00:00 5,0 5,0 11 6 - - NW
10.09.2019 02:00:00 5,4 5,4 16 9 - - NW
10.09.2019 01:00:00 5,4 5,4 21 11 - - NNW
10.09.2019 00:00:00 5,4 5,4 26 14 - - NNW
09.09.2019 23:00:00 6,1 6,1 29 16 - - NNW
09.09.2019 22:00:00 6,3 6,3 31 17 - - NNW
09.09.2019 21:00:00 6,3 6,3 31 17 - - NNW
09.09.2019 20:00:00 6,3 6,2 34 18 48 26 NNW
09.09.2019 19:00:00 6,0 6,0 41 22 55 30 NNW
09.09.2019 18:00:00 6,3 6,3 41 22 54 29 NNW
09.09.2019 17:00:00 6,2 6,2 41 22 54 29 NNW
09.09.2019 16:00:00 6,4 6,4 42 23 54 29 NNW
09.09.2019 15:00:00 6,4 6,4 42 23 61 33 NNW
09.09.2019 14:00:00 6,9 6,9 44 24 57 31 NNW
09.09.2019 13:00:00 7,0 7,0 48 26 59 32 NNW
09.09.2019 12:00:00 7,1 7,1 42 23 52 28 NNW
09.09.2019 11:00:00 7,5 7,5 26 14 - - NNW
09.09.2019 10:00:00 8,3 8,2 18 10 - - S
09.09.2019 09:00:00 8,5 8,4 15 8 - - S
09.09.2019 08:00:00 8,3 8,3 15 8 - - SSE
09.09.2019 07:00:00 8,2 8,2 13 7 - - SE

tt = Température de l'air
td = dewpoint
ff = Vitesse du vent
fx = gusts
dd = Direction du vent

stations d'obs. à proximité